createdAt,value
2022-08-26T00:02:12.576Z,22.00
2022-08-26T00:04:45.345Z,22.00
2022-08-26T00:07:13.522Z,21.90
2022-08-26T00:09:41.518Z,21.90
2022-08-26T00:12:15.207Z,21.80
2022-08-26T00:14:43.300Z,21.80
2022-08-26T00:17:11.489Z,21.80
2022-08-26T00:19:39.674Z,21.80
2022-08-26T00:22:09.722Z,21.80
2022-08-26T00:24:39.528Z,21.80
2022-08-26T00:27:16.000Z,21.80
2022-08-26T00:29:45.483Z,21.80
2022-08-26T00:32:13.482Z,21.70
2022-08-26T00:34:42.586Z,21.70
2022-08-26T00:37:14.518Z,21.70
2022-08-26T00:39:44.211Z,21.70
2022-08-26T00:42:13.982Z,21.70
2022-08-26T00:44:42.005Z,21.60
2022-08-26T00:47:17.462Z,21.60
2022-08-26T00:49:48.247Z,21.60
2022-08-26T00:52:20.920Z,21.50
2022-08-26T00:54:55.727Z,21.50
2022-08-26T00:57:25.439Z,21.50
2022-08-26T00:59:59.555Z,21.50
2022-08-26T01:02:28.881Z,21.40
2022-08-26T01:05:01.045Z,21.40
2022-08-26T01:07:34.733Z,21.30
2022-08-26T01:10:06.754Z,21.30
2022-08-26T01:12:41.013Z,21.30
2022-08-26T01:15:11.289Z,21.20
2022-08-26T01:17:39.921Z,21.20
2022-08-26T01:20:18.153Z,21.10
2022-08-26T01:22:54.261Z,21.10
2022-08-26T01:25:24.678Z,21.10
2022-08-26T01:27:54.001Z,21.10
2022-08-26T01:30:27.295Z,21.10
2022-08-26T01:32:57.118Z,21.10
2022-08-26T01:35:25.513Z,21.00
2022-08-26T01:37:57.235Z,21.00
2022-08-26T01:40:32.563Z,21.00
2022-08-26T01:43:02.433Z,20.90
2022-08-26T01:45:33.300Z,20.90
2022-08-26T01:48:04.264Z,20.90
2022-08-26T01:50:34.811Z,20.80
2022-08-26T01:53:08.362Z,20.80
2022-08-26T01:55:40.070Z,20.80
2022-08-26T01:58:15.124Z,20.80
2022-08-26T02:00:44.211Z,20.80
2022-08-26T02:03:19.022Z,20.80
2022-08-26T02:05:51.286Z,20.70
2022-08-26T02:08:25.000Z,20.70
2022-08-26T02:10:54.580Z,20.70
2022-08-26T02:13:26.645Z,20.70
2022-08-26T02:15:56.218Z,20.60
2022-08-26T02:18:25.474Z,20.60
2022-08-26T02:20:55.270Z,20.60
2022-08-26T02:23:25.610Z,20.60
2022-08-26T02:25:58.867Z,20.60
2022-08-26T02:28:32.644Z,20.60
2022-08-26T02:31:02.561Z,20.60
2022-08-26T02:33:31.229Z,20.50
2022-08-26T02:35:59.249Z,20.50
2022-08-26T02:38:29.430Z,20.50
2022-08-26T02:40:57.786Z,20.40
2022-08-26T02:43:31.679Z,20.40
2022-08-26T02:46:02.400Z,20.40
2022-08-26T02:48:31.974Z,20.30
2022-08-26T02:51:01.703Z,20.30
2022-08-26T02:53:31.833Z,20.30
2022-08-26T02:56:02.076Z,20.20
2022-08-26T02:58:31.777Z,20.20
2022-08-26T03:00:59.946Z,20.20
2022-08-26T03:03:30.149Z,20.20
2022-08-26T03:05:58.681Z,20.10
2022-08-26T03:08:26.760Z,20.10
2022-08-26T03:10:56.719Z,20.10
2022-08-26T03:13:24.796Z,20.10
2022-08-26T03:15:52.872Z,20.10
2022-08-26T03:18:20.908Z,20.00
2022-08-26T03:20:49.188Z,20.00
2022-08-26T03:23:17.222Z,20.00
2022-08-26T03:25:53.730Z,20.00
2022-08-26T03:28:23.170Z,20.00
2022-08-26T03:30:54.524Z,19.90
2022-08-26T03:33:22.577Z,19.90
2022-08-26T03:35:52.168Z,19.90
2022-08-26T03:38:20.973Z,19.90
2022-08-26T03:40:49.194Z,19.90
2022-08-26T03:43:19.647Z,19.80
2022-08-26T03:45:49.999Z,19.80
2022-08-26T03:48:19.411Z,19.80
2022-08-26T03:50:47.486Z,19.80
2022-08-26T03:53:16.810Z,19.80
2022-08-26T03:55:48.702Z,19.80
2022-08-26T03:58:20.613Z,19.80
2022-08-26T04:00:55.421Z,19.80
2022-08-26T04:03:37.993Z,19.80
2022-08-26T04:06:06.454Z,19.70
2022-08-26T04:08:34.593Z,19.80
2022-08-26T04:11:02.820Z,19.70
2022-08-26T04:13:31.323Z,19.70
2022-08-26T04:16:00.835Z,19.80
2022-08-26T04:18:37.030Z,19.80
2022-08-26T04:21:07.057Z,19.80
2022-08-26T04:23:47.674Z,19.70
2022-08-26T04:26:16.349Z,19.70
2022-08-26T04:28:44.391Z,19.70
2022-08-26T04:31:15.551Z,19.70
2022-08-26T04:33:43.888Z,19.70
2022-08-26T04:36:12.081Z,19.80
2022-08-26T04:38:40.409Z,19.80
2022-08-26T04:41:15.446Z,19.90
2022-08-26T04:43:45.610Z,19.90
2022-08-26T04:46:19.823Z,19.90
2022-08-26T04:48:47.912Z,19.90
2022-08-26T04:51:16.473Z,19.90
2022-08-26T04:53:44.635Z,19.90
2022-08-26T04:56:12.700Z,19.90
2022-08-26T04:58:41.220Z,20.10
2022-08-26T05:01:09.620Z,20.10
2022-08-26T05:03:39.911Z,20.30
2022-08-26T05:06:09.712Z,20.30
2022-08-26T05:08:39.490Z,20.60
2022-08-26T05:11:09.421Z,20.80
2022-08-26T05:13:39.089Z,21.00
2022-08-26T05:16:09.665Z,21.20
2022-08-26T05:18:43.491Z,21.40
2022-08-26T05:21:20.006Z,21.60
2022-08-26T05:23:49.032Z,21.60
2022-08-26T05:26:17.848Z,22.00
2022-08-26T05:28:51.623Z,22.10
2022-08-26T05:31:25.570Z,22.40
2022-08-26T05:33:57.458Z,22.40
2022-08-26T05:36:29.966Z,22.70
2022-08-26T05:39:00.107Z,22.90
2022-08-26T05:41:34.647Z,23.10
2022-08-26T05:44:06.841Z,23.20
2022-08-26T05:46:35.914Z,23.60
2022-08-26T05:49:06.020Z,23.80
2022-08-26T05:51:46.374Z,24.10
2022-08-26T05:54:21.941Z,24.40
2022-08-26T05:56:51.024Z,24.70
2022-08-26T05:59:23.942Z,24.70
2022-08-26T06:01:53.400Z,24.70
2022-08-26T06:04:27.006Z,24.70
2022-08-26T06:06:55.586Z,25.20
2022-08-26T06:09:23.794Z,25.70
2022-08-26T06:11:52.427Z,26.00
2022-08-26T06:14:21.767Z,26.30
2022-08-26T06:16:49.958Z,26.40
2022-08-26T06:19:18.301Z,26.70
2022-08-26T06:21:54.181Z,26.50
2022-08-26T06:24:40.150Z,26.70
2022-08-26T06:27:11.370Z,27.10
2022-08-26T06:29:39.908Z,27.50
2022-08-26T06:32:08.730Z,27.20
2022-08-26T06:34:37.017Z,27.30
2022-08-26T06:37:07.192Z,27.90
2022-08-26T06:39:35.813Z,28.40
2022-08-26T06:42:09.225Z,28.40
2022-08-26T06:44:41.893Z,28.50
2022-08-26T06:47:12.875Z,28.90
2022-08-26T06:49:41.065Z,29.20
2022-08-26T06:52:10.891Z,29.00
2022-08-26T06:54:43.139Z,28.60
2022-08-26T06:57:12.457Z,28.80
2022-08-26T06:59:42.363Z,29.70
2022-08-26T07:02:10.545Z,30.10
2022-08-26T07:04:41.811Z,30.40
2022-08-26T07:07:14.957Z,31.00
2022-08-26T07:09:43.034Z,31.10
2022-08-26T07:12:11.093Z,31.30
2022-08-26T07:14:40.303Z,31.70
2022-08-26T07:17:13.935Z,31.40
2022-08-26T07:19:43.275Z,31.90
2022-08-26T07:22:12.709Z,31.90
2022-08-26T07:24:42.352Z,32.10
2022-08-26T07:27:13.208Z,32.40
2022-08-26T07:29:42.380Z,32.70
2022-08-26T07:32:13.112Z,33.20
2022-08-26T07:34:42.300Z,32.90
2022-08-26T07:37:12.384Z,33.10
2022-08-26T07:39:41.721Z,33.30
2022-08-26T07:42:14.157Z,33.80
2022-08-26T07:44:42.777Z,34.00
2022-08-26T07:47:25.439Z,34.30
2022-08-26T07:49:56.082Z,34.40
2022-08-26T07:52:27.324Z,34.10
2022-08-26T07:54:56.445Z,34.20
2022-08-26T07:57:24.682Z,34.30
2022-08-26T07:59:55.037Z,34.60
2022-08-26T08:02:24.875Z,34.10
2022-08-26T08:04:53.174Z,34.10
2022-08-26T08:07:21.773Z,33.70
2022-08-26T08:10:11.607Z,33.90
2022-08-26T08:12:40.281Z,33.90
2022-08-26T08:15:10.463Z,34.60
2022-08-26T08:17:39.331Z,34.30
2022-08-26T08:20:09.250Z,34.40
2022-08-26T08:22:37.712Z,34.50
2022-08-26T08:25:08.269Z,34.80
2022-08-26T08:27:41.943Z,34.80
2022-08-26T08:30:13.645Z,34.70
2022-08-26T08:32:43.458Z,34.90
2022-08-26T08:35:13.392Z,35.20
2022-08-26T08:37:42.527Z,35.40
2022-08-26T08:40:18.132Z,35.50
2022-08-26T08:45:36.293Z,36.00
2022-08-26T08:48:08.001Z,36.10
2022-08-26T08:50:41.186Z,35.90
2022-08-26T08:53:16.758Z,35.90
2022-08-26T08:55:51.873Z,35.20
2022-08-26T08:58:28.230Z,35.00
2022-08-26T09:01:04.662Z,35.10
2022-08-26T09:03:46.706Z,35.30
2022-08-26T09:06:18.828Z,35.10
2022-08-26T09:08:50.089Z,35.10
2022-08-26T09:11:20.088Z,35.60
2022-08-26T09:13:53.561Z,35.30
2022-08-26T09:16:28.001Z,35.20
2022-08-26T09:19:11.253Z,35.50
2022-08-26T09:21:41.822Z,35.60
2022-08-26T09:24:11.228Z,35.10
2022-08-26T09:26:48.467Z,35.40
2022-08-26T09:29:25.059Z,35.30
2022-08-26T09:31:53.584Z,35.60
2022-08-26T09:34:26.980Z,35.80
2022-08-26T09:36:56.425Z,35.20
2022-08-26T09:39:30.745Z,35.40
2022-08-26T09:42:12.750Z,35.30
2022-08-26T09:44:59.469Z,35.20
2022-08-26T09:47:31.651Z,35.40
2022-08-26T09:50:04.612Z,35.70
2022-08-26T09:52:38.108Z,36.10
2022-08-26T09:55:14.031Z,36.20
2022-08-26T09:57:51.059Z,35.70
2022-08-26T10:00:30.779Z,35.50
2022-08-26T10:03:01.126Z,35.20
2022-08-26T10:05:33.148Z,35.50
2022-08-26T10:08:01.740Z,35.80
2022-08-26T10:10:34.749Z,35.60
2022-08-26T10:13:10.371Z,35.50
2022-08-26T10:15:50.709Z,35.50
2022-08-26T10:18:23.660Z,35.30
2022-08-26T10:20:57.424Z,35.30
2022-08-26T10:23:29.438Z,35.00
2022-08-26T10:26:04.013Z,35.00
2022-08-26T10:28:39.083Z,35.30
2022-08-26T10:31:21.866Z,35.10
2022-08-26T10:33:58.876Z,35.30
2022-08-26T10:37:14.591Z,35.20
2022-08-26T10:39:46.234Z,35.40
2022-08-26T10:42:20.441Z,35.30
2022-08-26T10:44:51.401Z,35.10
2022-08-26T10:47:34.134Z,35.30
2022-08-26T10:50:03.706Z,35.50
2022-08-26T10:52:42.141Z,35.30
2022-08-26T10:55:17.783Z,35.30
2022-08-26T10:57:52.535Z,35.30
2022-08-26T11:00:40.282Z,35.10
2022-08-26T11:03:28.925Z,35.20
2022-08-26T11:06:22.569Z,35.30
2022-08-26T11:08:52.676Z,35.10
2022-08-26T11:11:49.973Z,34.70
2022-08-26T11:14:46.021Z,34.80
2022-08-26T11:18:00.222Z,35.20
2022-08-26T11:20:41.628Z,35.00
2022-08-26T11:23:50.502Z,34.50
2022-08-26T11:26:35.598Z,34.70
2022-08-26T11:29:12.050Z,34.90
2022-08-26T11:31:56.713Z,35.00
2022-08-26T11:34:55.127Z,34.70
2022-08-26T11:37:32.903Z,34.50
2022-08-26T11:40:05.820Z,34.50
2022-08-26T11:42:40.995Z,34.40
2022-08-26T11:45:22.249Z,34.30
2022-08-26T11:47:50.384Z,34.10
2022-08-26T11:50:25.977Z,34.10
2022-08-26T11:52:56.373Z,34.30
2022-08-26T11:55:25.485Z,34.20
2022-08-26T11:57:56.290Z,34.10
2022-08-26T12:00:27.291Z,34.30
2022-08-26T12:03:03.413Z,34.20
2022-08-26T12:05:44.343Z,34.00
2022-08-26T12:08:21.440Z,33.90
2022-08-26T12:10:50.092Z,33.80
2022-08-26T12:13:23.043Z,33.60
2022-08-26T12:15:55.993Z,33.80
2022-08-26T12:18:29.166Z,33.90
2022-08-26T12:21:00.279Z,34.00
2022-08-26T12:23:42.128Z,34.10
2022-08-26T12:26:15.214Z,33.90
2022-08-26T12:28:46.745Z,33.70
2022-08-26T12:31:25.489Z,33.70
2022-08-26T12:33:54.103Z,33.80
2022-08-26T12:36:28.607Z,33.60
2022-08-26T12:38:58.559Z,33.60
2022-08-26T12:41:50.681Z,33.60
2022-08-26T12:44:53.978Z,33.60
2022-08-26T12:47:42.137Z,33.50
2022-08-26T12:50:18.105Z,33.40
2022-08-26T12:53:00.793Z,33.30
2022-08-26T12:55:38.767Z,33.30
2022-08-26T12:58:21.467Z,33.50
2022-08-26T13:00:50.732Z,33.40
2022-08-26T13:03:40.273Z,33.30
2022-08-26T13:06:17.613Z,33.10
2022-08-26T13:08:47.917Z,33.10
2022-08-26T13:11:20.720Z,33.10
2022-08-26T13:13:53.393Z,33.10
2022-08-26T13:16:22.557Z,33.20
2022-08-26T13:18:53.142Z,33.30
2022-08-26T13:21:25.868Z,33.30
2022-08-26T13:23:57.532Z,33.20
2022-08-26T13:26:25.640Z,33.20
2022-08-26T13:29:01.425Z,32.90
2022-08-26T13:31:31.795Z,33.00
2022-08-26T13:34:00.044Z,32.90
2022-08-26T13:36:29.280Z,32.90
2022-08-26T13:38:59.008Z,32.70
2022-08-26T13:41:29.076Z,32.70
2022-08-26T13:44:00.720Z,32.90
2022-08-26T13:46:29.926Z,32.90
2022-08-26T13:48:58.932Z,32.90
2022-08-26T13:51:28.376Z,32.90
2022-08-26T13:53:58.688Z,32.60
2022-08-26T13:56:29.416Z,32.40
2022-08-26T13:58:58.037Z,32.20
2022-08-26T14:01:26.971Z,32.20
2022-08-26T14:03:55.275Z,32.20
2022-08-26T14:06:23.680Z,32.20
2022-08-26T14:08:51.753Z,32.10
2022-08-26T14:11:21.413Z,32.20
2022-08-26T14:13:50.217Z,32.20
2022-08-26T14:16:25.568Z,32.20
2022-08-26T14:18:54.103Z,32.20
2022-08-26T14:21:22.298Z,32.10
2022-08-26T14:23:50.457Z,32.00
2022-08-26T14:26:28.955Z,32.00
2022-08-26T14:28:58.890Z,32.00
2022-08-26T14:31:29.194Z,31.90
2022-08-26T14:34:00.959Z,31.80
2022-08-26T14:36:29.140Z,31.70
2022-08-26T14:39:00.225Z,31.60
2022-08-26T14:41:30.886Z,31.60
2022-08-26T14:44:01.045Z,31.70
2022-08-26T14:46:31.100Z,31.70
2022-08-26T14:49:01.779Z,31.60
2022-08-26T14:51:31.361Z,31.50
2022-08-26T14:54:14.760Z,31.50
2022-08-26T14:56:47.672Z,31.50
2022-08-26T14:59:18.558Z,31.40
2022-08-26T15:01:47.418Z,31.50
2022-08-26T15:04:15.773Z,31.40
2022-08-26T15:06:43.867Z,31.40
2022-08-26T15:09:12.487Z,31.30
2022-08-26T15:11:40.609Z,31.30
2022-08-26T15:14:19.028Z,31.30
2022-08-26T15:16:48.272Z,31.30
2022-08-26T15:19:16.490Z,31.20
2022-08-26T15:21:45.613Z,31.20
2022-08-26T15:24:16.455Z,31.10
2022-08-26T15:26:45.487Z,31.20
2022-08-26T15:29:15.184Z,31.10
2022-08-26T15:31:43.385Z,31.10
2022-08-26T15:34:16.442Z,31.00
2022-08-26T15:36:46.322Z,31.00
2022-08-26T15:39:16.485Z,30.90
2022-08-26T15:41:44.921Z,30.90
2022-08-26T15:44:17.016Z,31.00
2022-08-26T15:46:45.423Z,30.90
2022-08-26T15:49:17.744Z,30.80
2022-08-26T15:51:47.897Z,30.80
2022-08-26T15:54:17.655Z,30.70
2022-08-26T15:56:48.508Z,30.70
2022-08-26T15:59:19.625Z,30.70
2022-08-26T16:01:48.141Z,30.70
2022-08-26T16:04:17.664Z,30.60
2022-08-26T16:06:50.156Z,30.60
2022-08-26T16:09:18.512Z,30.50
2022-08-26T16:11:46.754Z,30.40
2022-08-26T16:14:14.853Z,30.50
2022-08-26T16:16:47.017Z,30.40
2022-08-26T16:19:15.645Z,30.40
2022-08-26T16:21:44.680Z,30.40
2022-08-26T16:24:13.121Z,30.30
2022-08-26T16:26:42.897Z,30.20
2022-08-26T16:29:13.844Z,30.20
2022-08-26T16:31:43.673Z,30.10
2022-08-26T16:34:12.211Z,30.10
2022-08-26T16:36:40.788Z,29.90
2022-08-26T16:39:09.802Z,29.90
2022-08-26T16:41:38.360Z,29.90
2022-08-26T16:44:07.768Z,29.80
2022-08-26T16:46:36.538Z,29.70
2022-08-26T16:49:06.177Z,29.70
2022-08-26T16:51:34.804Z,29.60
2022-08-26T16:54:08.043Z,29.50
2022-08-26T16:56:36.805Z,29.50
2022-08-26T16:59:05.405Z,29.40
2022-08-26T17:01:33.706Z,29.30
2022-08-26T17:04:01.864Z,29.30
2022-08-26T17:06:31.489Z,29.20
2022-08-26T17:08:59.671Z,29.10
2022-08-26T17:11:27.791Z,29.10
2022-08-26T17:13:55.885Z,29.00
2022-08-26T17:16:26.881Z,28.90
2022-08-26T17:18:56.284Z,28.80
2022-08-26T17:21:24.699Z,28.70
2022-08-26T17:23:54.665Z,28.60
2022-08-26T17:26:22.898Z,28.50
2022-08-26T17:28:51.485Z,28.50
2022-08-26T17:31:19.799Z,28.40
2022-08-26T17:33:53.859Z,28.30
2022-08-26T17:36:27.527Z,28.20
2022-08-26T17:38:58.148Z,28.20
2022-08-26T17:41:27.280Z,28.10
2022-08-26T17:43:55.594Z,28.10
2022-08-26T17:46:23.951Z,28.00
2022-08-26T17:48:52.137Z,27.90
2022-08-26T17:51:22.686Z,27.80
2022-08-26T17:53:51.193Z,27.70
2022-08-26T17:56:25.425Z,27.70
2022-08-26T17:58:54.723Z,27.60
2022-08-26T18:01:26.100Z,27.40
2022-08-26T18:03:59.698Z,27.40
2022-08-26T18:06:30.347Z,27.20
2022-08-26T18:08:58.551Z,27.20
2022-08-26T18:11:28.843Z,27.10
2022-08-26T18:13:56.878Z,27.00
2022-08-26T18:16:25.430Z,26.90
2022-08-26T18:18:53.810Z,26.80
2022-08-26T18:21:26.358Z,26.80
2022-08-26T18:23:55.165Z,26.70
2022-08-26T18:26:26.279Z,26.60
2022-08-26T18:28:56.121Z,26.60
2022-08-26T18:31:24.824Z,26.50
2022-08-26T18:33:53.498Z,26.50
2022-08-26T18:36:27.656Z,26.40
2022-08-26T18:38:56.332Z,26.30
2022-08-26T18:41:27.863Z,26.30
2022-08-26T18:43:58.790Z,26.20
2022-08-26T18:46:28.319Z,26.20
2022-08-26T18:48:57.393Z,26.10
2022-08-26T18:51:29.572Z,26.10
2022-08-26T18:53:58.704Z,26.00
2022-08-26T18:56:27.046Z,25.90
2022-08-26T18:58:56.479Z,25.90
2022-08-26T19:01:27.552Z,25.80
2022-08-26T19:03:56.186Z,25.80
2022-08-26T19:06:25.699Z,25.70
2022-08-26T19:08:54.180Z,25.70
2022-08-26T19:11:32.350Z,25.60
2022-08-26T19:14:08.054Z,25.60
2022-08-26T19:16:37.411Z,25.50
2022-08-26T19:19:05.647Z,25.40
2022-08-26T19:21:35.349Z,25.30
2022-08-26T19:24:06.389Z,25.30
2022-08-26T19:26:34.980Z,25.30
2022-08-26T19:29:03.188Z,25.20
2022-08-26T19:31:35.570Z,25.10
2022-08-26T19:34:07.035Z,25.10
2022-08-26T19:36:35.391Z,25.10
2022-08-26T19:39:07.743Z,25.00
2022-08-26T19:41:38.768Z,24.90
2022-08-26T19:44:09.358Z,24.80
2022-08-26T19:49:12.126Z,24.80
2022-08-26T19:51:40.187Z,24.80
2022-08-26T19:54:08.198Z,24.70
2022-08-26T19:56:36.550Z,24.70
2022-08-26T19:59:04.636Z,24.60
2022-08-26T20:01:32.834Z,24.60
2022-08-26T20:04:03.190Z,24.60
2022-08-26T20:06:31.351Z,24.50
2022-08-26T20:08:59.546Z,24.50
2022-08-26T20:11:27.739Z,24.50
2022-08-26T20:13:55.946Z,24.50
2022-08-26T20:16:24.044Z,24.50
2022-08-26T20:19:09.637Z,24.40
2022-08-26T20:21:41.336Z,24.40
2022-08-26T20:24:13.867Z,24.40
2022-08-26T20:26:44.032Z,24.30
2022-08-26T20:29:14.008Z,24.30
2022-08-26T20:31:44.098Z,24.30
2022-08-26T20:34:13.246Z,24.20
2022-08-26T20:36:44.192Z,24.20
2022-08-26T20:39:12.493Z,24.10
2022-08-26T20:41:42.125Z,24.10
2022-08-26T20:44:11.143Z,24.10
2022-08-26T20:46:39.323Z,24.00
2022-08-26T20:49:07.970Z,24.00
2022-08-26T20:51:37.397Z,24.00
2022-08-26T20:54:08.187Z,24.00
2022-08-26T20:56:36.788Z,24.00
2022-08-26T20:59:06.820Z,23.90
2022-08-26T21:01:37.106Z,23.90
2022-08-26T21:04:13.853Z,23.80
2022-08-26T21:06:46.602Z,23.80
2022-08-26T21:09:24.557Z,23.80
2022-08-26T21:11:53.233Z,23.80
2022-08-26T21:14:25.725Z,23.80
2022-08-26T21:16:54.455Z,23.70
2022-08-26T21:19:23.282Z,23.70
2022-08-26T21:21:51.728Z,23.70
2022-08-26T21:24:21.326Z,23.60
2022-08-26T21:26:49.916Z,23.60
2022-08-26T21:29:18.005Z,23.60
2022-08-26T21:31:46.975Z,23.50
2022-08-26T21:34:16.076Z,23.50
2022-08-26T21:36:45.330Z,23.40
2022-08-26T21:39:13.860Z,23.40
2022-08-26T21:41:47.515Z,23.40
2022-08-26T21:44:17.065Z,23.40
2022-08-26T21:46:46.618Z,23.40
2022-08-26T21:49:16.730Z,23.40
2022-08-26T21:51:47.425Z,23.30
2022-08-26T21:54:15.899Z,23.30
2022-08-26T21:56:47.704Z,23.20
2022-08-26T21:59:17.832Z,23.20
2022-08-26T22:01:46.100Z,23.20
2022-08-26T22:04:14.351Z,23.10
2022-08-26T22:06:45.438Z,23.00
2022-08-26T22:09:14.677Z,23.00
2022-08-26T22:11:43.499Z,23.00
2022-08-26T22:14:13.359Z,22.90
2022-08-26T22:16:41.737Z,22.90
2022-08-26T22:19:19.941Z,22.90
2022-08-26T22:21:50.058Z,22.90
2022-08-26T22:24:19.118Z,22.80
2022-08-26T22:26:48.033Z,22.80
2022-08-26T22:29:18.702Z,22.70
2022-08-26T22:31:47.448Z,22.70
2022-08-26T22:34:19.496Z,22.60
2022-08-26T22:36:49.518Z,22.60
2022-08-26T22:39:20.125Z,22.50
2022-08-26T22:41:48.824Z,22.50
2022-08-26T22:44:19.322Z,22.50
2022-08-26T22:46:48.370Z,22.40
2022-08-26T22:49:16.916Z,22.40
2022-08-26T22:51:45.811Z,22.40
2022-08-26T22:54:14.480Z,22.40
2022-08-26T22:56:43.439Z,22.30
2022-08-26T22:59:12.017Z,22.30
2022-08-26T23:01:44.041Z,22.30
2022-08-26T23:04:12.742Z,22.20
2022-08-26T23:06:43.060Z,22.20
2022-08-26T23:09:12.233Z,22.20
2022-08-26T23:11:43.665Z,22.20
2022-08-26T23:14:12.519Z,22.20
2022-08-26T23:16:43.074Z,22.20
2022-08-26T23:19:13.000Z,22.20
2022-08-26T23:21:41.477Z,22.10
2022-08-26T23:24:09.927Z,22.10
2022-08-26T23:26:38.905Z,22.10
2022-08-26T23:29:07.851Z,22.00
2022-08-26T23:31:37.088Z,22.00
2022-08-26T23:34:23.776Z,22.00
2022-08-26T23:36:52.653Z,22.00
2022-08-26T23:39:22.237Z,21.90
2022-08-26T23:41:50.360Z,21.90
2022-08-26T23:44:19.721Z,21.90
2022-08-26T23:46:48.243Z,21.90
2022-08-26T23:49:17.687Z,21.90
2022-08-26T23:52:08.299Z,21.90
2022-08-26T23:54:36.363Z,21.90
2022-08-26T23:57:04.581Z,21.80
2022-08-26T23:59:32.984Z,21.80
